Time;durP1;ratioP1;P1;durP2;ratioP2;P2;SDS_P1;SDS_P2;PMS_P1;PMS_P2;Temp;Humidity;BMP_temperature;BMP_pressure;BME280_temperature;BME280_humidity;BME280_pressure;Samples;Min_cycle;Max_cycle;Signal;HPM_P1;HPM_P2
2021/12/27 00:00:58;;;;;;;3.85;3.47;;;;;;;4.51;99.44;98109.00;1985215;79;20765;-71
2021/12/27 00:04:02;;;;;;;5.41;3.96;;;;;;;4.51;99.40;98109.84;1985845;81;20818;-71
2021/12/27 00:07:04;;;;;;;5.32;4.69;;;;;;;4.50;99.40;98115.84;1986894;81;20399;-71
2021/12/27 00:10:07;;;;;;;5.71;4.15;;;;;;;4.51;99.46;98111.56;1986826;81;20398;-71
2021/12/27 00:13:11;;;;;;;4.47;3.89;;;;;;;4.53;99.51;98115.84;1986778;81;20366;-71
2021/12/27 00:16:14;;;;;;;5.60;4.28;;;;;;;4.52;99.41;98114.13;1984500;79;21413;-70
2021/12/27 00:19:16;;;;;;;5.75;4.21;;;;;;;4.52;99.48;98103.00;1987143;81;20354;-70
2021/12/27 00:22:19;;;;;;;6.26;3.97;;;;;;;4.54;99.59;98103.84;1987952;81;20336;-71
2021/12/27 00:25:22;;;;;;;7.90;4.50;;;;;;;4.57;99.60;98100.41;1987412;81;20315;-71
2021/12/27 00:28:24;;;;;;;6.14;4.06;;;;;;;4.58;99.64;98107.28;1987884;81;20332;-71
2021/12/27 00:31:27;;;;;;;6.21;4.19;;;;;;;4.60;99.53;98105.56;1986378;79;20915;-71
2021/12/27 00:34:30;;;;;;;6.78;4.46;;;;;;;4.55;99.38;98092.72;2039851;71;20385;-71
2021/12/27 00:37:33;;;;;;;7.40;4.71;;;;;;;4.54;99.53;98097.00;1983266;81;20325;-71
2021/12/27 00:40:36;;;;;;;8.48;4.61;;;;;;;4.54;99.68;98091.00;1983303;81;20332;-71
2021/12/27 00:43:38;;;;;;;6.36;4.32;;;;;;;4.57;99.67;98096.13;1982992;81;20325;-71
2021/12/27 00:46:41;;;;;;;5.19;3.84;;;;;;;4.55;99.65;98079.84;1980512;79;21832;-71
2021/12/27 00:49:43;;;;;;;5.59;4.14;;;;;;;4.58;99.75;98073.84;1982399;81;20453;-71
2021/12/27 00:52:46;;;;;;;6.76;4.51;;;;;;;4.59;99.74;98073.00;1982690;81;20855;-71
2021/12/27 00:55:49;;;;;;;9.63;5.96;;;;;;;4.60;99.73;98067.84;1982604;81;20488;-71
2021/12/27 00:58:52;;;;;;;9.02;5.49;;;;;;;4.60;99.58;98064.41;1982290;81;20345;-71
2021/12/27 01:01:56;;;;;;;5.89;4.74;;;;;;;4.57;99.47;98062.72;1981084;79;22390;-71
2021/12/27 01:04:59;;;;;;;6.06;4.43;;;;;;;4.54;99.53;98068.72;1982766;81;20557;-70
2021/12/27 01:08:02;;;;;;;8.29;4.59;;;;;;;4.52;99.62;98062.72;1982519;81;20402;-70
2021/12/27 01:14:27;;;;;;;6.41;4.55;;;;;;;4.51;99.75;98071.31;1982134;81;20342;-70
2021/12/27 01:17:30;;;;;;;5.97;4.40;;;;;;;4.53;99.86;98076.44;1981757;79;20436;-70
2021/12/27 01:20:35;;;;;;;4.81;3.97;;;;;;;4.53;99.88;98061.00;1983212;81;20891;-71
2021/12/27 01:23:38;;;;;;;6.76;4.80;;;;;;;4.57;99.98;98061.88;1982504;82;20815;-71
2021/12/27 01:26:41;;;;;;;7.05;4.64;;;;;;;4.57;99.88;98064.44;1982782;81;21286;-71
2021/12/27 01:29:43;;;;;;;7.00;5.00;;;;;;;4.57;99.89;98064.44;1982674;81;21174;-71
2021/12/27 01:32:54;;;;;;;8.45;5.15;;;;;;;4.59;100.00;98067.84;1981163;79;21919;-71
2021/12/27 01:35:58;;;;;;;8.02;5.01;;;;;;;4.61;99.96;98068.69;1982651;81;20348;-71
2021/12/27 01:39:03;;;;;;;7.18;4.99;;;;;;;4.61;100.00;98066.97;1983011;81;20362;-71
2021/12/27 01:42:06;;;;;;;6.53;4.89;;;;;;;4.61;100.00;98061.84;1982011;81;20399;-71
2021/12/27 01:45:09;;;;;;;6.10;4.51;;;;;;;4.63;100.00;98065.25;1981161;81;20329;-70
2021/12/27 01:48:14;;;;;;;7.79;4.80;;;;;;;4.67;100.00;98064.41;1982574;79;21790;-71
2021/12/27 01:51:17;;;;;;;7.20;4.85;;;;;;;4.69;100.00;98054.13;1982484;82;20337;-71
2021/12/27 01:54:19;;;;;;;7.99;4.56;;;;;;;4.70;100.00;98053.28;1982200;82;20337;-71
2021/12/27 01:57:22;;;;;;;6.86;4.72;;;;;;;4.71;100.00;98053.25;1982855;82;20376;-70
2021/12/27 02:00:25;;;;;;;8.46;5.38;;;;;;;4.71;100.00;98042.97;1981379;79;20802;-71
2021/12/27 02:03:31;;;;;;;6.89;4.72;;;;;;;4.73;100.00;98037.84;1982616;81;20344;-71
2021/12/27 02:06:38;;;;;;;7.25;4.69;;;;;;;4.72;99.90;98048.97;1982354;81;20362;-71
2021/12/27 02:09:51;;;;;;;6.89;4.91;;;;;;;4.71;100.00;98049.84;1982539;81;20349;-71
2021/12/27 02:12:54;;;;;;;6.63;4.94;;;;;;;4.71;100.00;98042.97;1982654;82;20502;-71
2021/12/27 02:15:57;;;;;;;7.22;5.16;;;;;;;4.73;100.00;98045.53;1981851;82;20364;-71
2021/12/27 02:19:00;;;;;;;7.69;4.97;;;;;;;4.72;100.00;98042.13;1981878;79;20599;-71
2021/12/27 02:22:02;;;;;;;5.82;4.60;;;;;;;4.72;100.00;98038.69;1982995;82;20329;-71
2021/12/27 02:25:07;;;;;;;7.28;4.88;;;;;;;4.72;100.00;98039.53;1983127;82;20794;-71
2021/12/27 02:28:10;;;;;;;7.45;4.88;;;;;;;4.76;100.00;98045.53;1982823;82;20362;-71
2021/12/27 02:31:14;;;;;;;7.25;4.71;;;;;;;4.77;100.00;98044.66;1980676;81;22503;-71
2021/12/27 02:34:17;;;;;;;6.69;4.85;;;;;;;4.79;100.00;98042.94;1982748;82;20350;-71
2021/12/27 02:37:20;;;;;;;6.30;4.96;;;;;;;4.81;100.00;98041.22;1982686;82;20328;-71
2021/12/27 02:40:26;;;;;;;6.29;4.81;;;;;;;4.85;100.00;98051.50;1983104;82;20356;-71
2021/12/27 02:43:31;;;;;;;6.13;4.49;;;;;;;4.88;100.00;98037.78;1982454;81;20443;-71
2021/12/27 02:46:34;;;;;;;7.19;5.19;;;;;;;4.92;100.00;98036.06;1977686;79;21594;-71
2021/12/27 02:49:36;;;;;;;6.55;5.04;;;;;;;4.95;100.00;98033.47;1982682;82;20348;-72
2021/12/27 02:52:39;;;;;;;6.82;4.49;;;;;;;4.98;100.00;98036.00;1982104;82;20871;-71
2021/12/27 02:55:42;;;;;;;6.09;5.05;;;;;;;4.97;100.00;98026.59;1982449;82;20360;-71
2021/12/27 02:58:46;;;;;;;6.88;5.18;;;;;;;4.97;100.00;98026.59;1983171;82;20313;-72
2021/12/27 03:01:49;;;;;;;6.43;4.39;;;;;;;4.95;100.00;98016.31;1981791;80;20376;-71
2021/12/27 03:04:51;;;;;;;5.00;4.51;;;;;;;4.96;100.00;98018.03;1983137;82;20653;-71
2021/12/27 03:07:55;;;;;;;6.03;4.60;;;;;;;4.94;100.00;98019.75;1980836;81;20451;-71
2021/12/27 03:10:59;;;;;;;5.10;3.90;;;;;;;4.97;100.00;98013.72;1984264;81;20406;-71
2021/12/27 03:14:02;;;;;;;8.09;4.56;;;;;;;4.95;100.00;98015.47;1984771;81;20326;-71
2021/12/27 03:17:06;;;;;;;4.45;3.86;;;;;;;4.93;99.99;98010.31;1983240;79;20360;-71
2021/12/27 03:20:09;;;;;;;4.97;4.05;;;;;;;4.93;99.94;98010.31;1984974;81;20795;-71
2021/12/27 03:23:12;;;;;;;5.90;4.57;;;;;;;4.92;99.99;98000.03;1984265;81;20354;-71
2021/12/27 03:26:15;;;;;;;6.29;4.22;;;;;;;4.93;100.00;98000.03;1984039;81;20337;-71
2021/12/27 03:29:18;;;;;;;4.25;3.79;;;;;;;4.94;100.00;98006.88;1984983;81;20698;-72
2021/12/27 03:32:22;;;;;;;4.18;3.76;;;;;;;4.94;100.00;98001.75;1983030;81;21467;-71
2021/12/27 03:35:27;;;;;;;6.14;4.07;;;;;;;4.96;100.00;98001.72;1985216;81;20494;-71
2021/12/27 03:38:33;;;;;;;4.28;3.83;;;;;;;4.95;100.00;98005.16;1983551;81;20326;-71
2021/12/27 03:41:36;;;;;;;4.56;3.85;;;;;;;4.96;100.00;97999.16;1984610;81;20352;-71
2021/12/27 03:44:39;;;;;;;6.29;4.36;;;;;;;4.97;100.00;97983.72;1984264;81;20328;-71
2021/12/27 03:47:41;;;;;;;5.40;4.22;;;;;;;5.01;100.00;97987.13;1982865;80;20945;-72
2021/12/27 03:50:44;;;;;;;5.38;3.79;;;;;;;5.03;100.00;97990.56;1983765;81;20341;-71
2021/12/27 03:53:46;;;;;;;4.54;3.80;;;;;;;5.02;100.00;97979.41;1984306;81;20349;-72
2021/12/27 03:56:49;;;;;;;4.65;4.25;;;;;;;5.02;100.00;97978.53;1985223;81;20722;-71
2021/12/27 04:03:16;;;;;;;8.48;4.47;;;;;;;5.02;100.00;97978.53;1983572;81;20957;-71
2021/12/27 04:06:20;;;;;;;6.93;4.43;;;;;;;5.02;100.00;97979.41;1983653;81;20354;-71
2021/12/27 04:09:23;;;;;;;6.55;4.47;;;;;;;5.04;100.00;97972.56;1983384;81;20368;-71
2021/12/27 04:12:26;;;;;;;5.09;4.19;;;;;;;5.06;100.00;97964.81;1983181;81;20361;-72
2021/12/27 04:15:29;;;;;;;5.81;3.50;;;;;;;5.06;100.00;97970.81;1981536;79;21901;-72
2021/12/27 04:18:32;;;;;;;7.10;4.01;;;;;;;5.07;100.00;97966.53;1982908;81;20421;-72
2021/12/27 04:21:35;;;;;;;5.80;3.78;;;;;;;5.07;100.00;97969.97;1979863;81;20375;-72
2021/12/27 04:24:37;;;;;;;5.09;3.91;;;;;;;5.08;100.00;97970.81;1983522;81;20386;-72
2021/12/27 04:27:40;;;;;;;4.95;3.99;;;;;;;5.08;100.00;97965.66;1982757;81;20404;-72
2021/12/27 04:30:43;;;;;;;4.19;3.64;;;;;;;5.10;100.00;97963.94;1981342;79;21442;-72
2021/12/27 04:33:46;;;;;;;4.01;3.56;;;;;;;5.11;100.00;97969.06;1983550;81;20749;-72
2021/12/27 04:36:49;;;;;;;4.01;3.33;;;;;;;5.10;100.00;97964.78;1986353;81;20329;-72
2021/12/27 04:39:51;;;;;;;5.05;3.74;;;;;;;5.12;100.00;97962.22;1983464;81;20423;-72
2021/12/27 04:42:59;;;;;;;5.28;4.10;;;;;;;5.12;100.00;97957.91;1983156;81;20464;-72
2021/12/27 04:46:02;;;;;;;6.10;4.25;;;;;;;5.14;100.00;97952.75;1981107;79;21965;-72
2021/12/27 04:49:05;;;;;;;4.18;3.67;;;;;;;5.15;100.00;97951.91;1983016;81;20354;-72
2021/12/27 04:52:07;;;;;;;4.01;3.51;;;;;;;5.18;100.00;97951.03;1983419;81;20348;-71
2021/12/27 04:55:10;;;;;;;5.25;3.65;;;;;;;5.20;100.00;97937.28;1982466;81;20349;-71
2021/12/27 04:58:16;;;;;;;4.22;3.65;;;;;;;5.24;100.00;97944.13;1983544;81;20345;-72
2021/12/27 05:01:22;;;;;;;6.01;4.06;;;;;;;5.27;100.00;97948.41;1981103;79;27006;-72
2021/12/27 05:04:25;;;;;;;4.38;3.70;;;;;;;5.29;100.00;97941.53;1983154;81;20196;-72
2021/12/27 05:07:28;;;;;;;4.29;3.36;;;;;;;5.30;100.00;97931.22;1983032;81;20382;-72
2021/12/27 05:10:30;;;;;;;4.07;3.58;;;;;;;5.31;100.00;97932.91;1982969;81;20459;-72
2021/12/27 05:13:33;;;;;;;5.13;4.00;;;;;;;5.34;100.00;97919.16;1983389;81;20461;-72
2021/12/27 05:16:36;;;;;;;4.88;3.95;;;;;;;5.38;100.00;97919.13;1981514;79;21073;-71
2021/12/27 05:19:39;;;;;;;5.66;4.34;;;;;;;5.46;100.00;97922.53;1982933;82;20394;-71
2021/12/27 05:22:41;;;;;;;5.81;4.41;;;;;;;5.54;100.00;97916.44;1983781;81;20737;-71
2021/12/27 05:25:44;;;;;;;6.22;4.14;;;;;;;5.57;100.00;97911.28;1983364;81;20324;-72
2021/12/27 05:28:47;;;;;;;6.10;3.90;;;;;;;5.65;100.00;97912.06;1980986;82;20436;-72
2021/12/27 05:31:50;;;;;;;12.79;5.04;;;;;;;5.67;100.00;97911.19;1981485;79;21851;-72
2021/12/27 05:34:53;;;;;;;6.70;4.39;;;;;;;5.79;100.00;97907.66;1983224;81;20464;-72
2021/12/27 05:37:56;;;;;;;7.68;4.71;;;;;;;5.90;100.00;97910.13;1983440;81;20372;-72
2021/12/27 05:40:59;;;;;;;8.19;4.85;;;;;;;5.95;100.00;97896.38;1984352;82;21098;-72
2021/12/27 05:44:02;;;;;;;8.14;4.94;;;;;;;6.07;100.00;97898.78;1982669;81;20441;-71
2021/12/27 05:47:05;;;;;;;5.74;4.75;;;;;;;6.19;100.00;97899.53;1981658;79;25237;-71
2021/12/27 05:50:09;;;;;;;7.49;5.22;;;;;;;6.31;100.00;97896.84;1982961;81;20362;-72
2021/12/27 05:53:13;;;;;;;6.21;4.89;;;;;;;6.42;100.00;97891.53;1983431;82;20500;-72
2021/12/27 05:56:15;;;;;;;7.66;5.05;;;;;;;6.47;100.00;97898.38;1982991;81;20338;-72
2021/12/27 05:59:18;;;;;;;5.76;4.22;;;;;;;6.54;100.00;97899.13;1982569;81;20390;-72
2021/12/27 06:02:21;;;;;;;5.43;4.60;;;;;;;6.59;100.00;97894.75;1981251;81;21934;-72
2021/12/27 06:05:24;;;;;;;5.32;4.35;;;;;;;6.63;100.00;97888.69;1982690;81;20451;-72
2021/12/27 06:08:27;;;;;;;6.81;4.47;;;;;;;6.61;100.00;97886.13;1982890;82;20345;-72
2021/12/27 06:11:29;;;;;;;7.14;4.99;;;;;;;6.70;100.00;97892.91;1983256;81;20376;-72
2021/12/27 06:14:32;;;;;;;5.21;4.10;;;;;;;6.79;100.00;97895.34;1983021;81;20330;-72
2021/12/27 06:17:35;;;;;;;5.39;3.76;;;;;;;6.80;100.00;97893.63;1982560;81;21028;-72
2021/12/27 06:20:37;;;;;;;4.53;3.60;;;;;;;6.82;100.00;97891.88;1982972;82;20810;-72
2021/12/27 06:23:41;;;;;;;7.07;4.30;;;;;;;6.79;100.00;97890.19;1983489;82;20341;-72
2021/12/27 06:26:43;;;;;;;7.84;4.18;;;;;;;6.82;100.00;97890.19;1982815;82;20325;-72
2021/12/27 06:29:46;;;;;;;6.21;4.07;;;;;;;6.92;100.00;97891.75;1983150;82;20376;-72
2021/12/27 06:32:49;;;;;;;5.63;4.53;;;;;;;6.98;100.00;97890.78;1981624;79;45350;-72
2021/12/27 06:35:52;;;;;;;6.16;3.95;;;;;;;7.03;100.00;97886.44;1979986;82;20426;-73
2021/12/27 06:38:55;;;;;;;7.45;4.26;;;;;;;7.07;100.00;97888.09;1982828;82;20380;-73
2021/12/27 06:41:57;;;;;;;6.54;4.01;;;;;;;7.09;100.00;97891.50;1984083;81;20945;-72
2021/12/27 06:45:00;;;;;;;5.18;3.76;;;;;;;7.13;100.00;97890.56;1984456;81;20954;-72
2021/12/27 06:48:03;;;;;;;4.10;3.70;;;;;;;7.15;100.00;97893.97;1984243;79;20980;-72
2021/12/27 06:51:06;;;;;;;3.91;3.42;;;;;;;7.18;100.00;97896.53;1984916;81;20883;-72
2021/12/27 06:54:09;;;;;;;8.99;3.91;;;;;;;7.22;100.00;97889.59;1985041;81;20376;-72
2021/12/27 06:57:11;;;;;;;5.11;3.79;;;;;;;7.27;100.00;97891.22;1983893;81;20321;-72
2021/12/27 07:00:19;;;;;;;4.15;3.60;;;;;;;7.29;100.00;97888.63;1982709;79;21531;-73
2021/12/27 07:03:22;;;;;;;3.69;3.19;;;;;;;7.33;100.00;97890.25;1984420;81;20332;-72
2021/12/27 07:06:29;;;;;;;3.86;3.31;;;;;;;7.36;100.00;97886.78;1984626;81;20332;-72
2021/12/27 07:09:31;;;;;;;5.30;3.56;;;;;;;7.34;100.00;97889.38;1985117;81;20352;-72
2021/12/27 07:12:34;;;;;;;3.67;3.26;;;;;;;7.39;100.00;97884.19;1985318;81;20988;-72
2021/12/27 07:15:44;;;;;;;6.57;3.60;;;;;;;7.40;100.00;97881.56;1982865;81;23736;-72
2021/12/27 07:18:47;;;;;;;7.00;3.99;;;;;;;7.42;100.00;97881.53;1984544;81;20333;-72
2021/12/27 07:21:49;;;;;;;4.40;3.24;;;;;;;7.47;100.00;97884.88;1984715;81;20370;-73
2021/12/27 07:24:52;;;;;;;5.01;3.56;;;;;;;7.48;100.00;97884.84;1984380;81;20372;-72
2021/12/27 07:27:55;;;;;;;5.04;3.40;;;;;;;7.50;100.00;97887.41;1984731;81;21351;-73
2021/12/27 07:30:57;;;;;;;4.16;3.13;;;;;;;7.50;100.00;97888.25;1979676;79;22228;-73
2021/12/27 07:34:01;;;;;;;4.81;3.20;;;;;;;7.53;100.00;97888.22;1985808;81;20354;-73
2021/12/27 07:37:03;;;;;;;6.18;3.03;;;;;;;7.54;100.00;97887.38;1984684;81;20353;-73
2021/12/27 07:40:07;;;;;;;3.33;2.80;;;;;;;7.55;100.00;97888.22;1985884;81;20366;-74
2021/12/27 07:43:10;;;;;;;4.06;2.86;;;;;;;7.57;100.00;97889.88;1985238;81;20328;-73
2021/12/27 07:46:12;;;;;;;4.56;3.00;;;;;;;7.59;100.00;97889.88;1982775;79;21291;-72
2021/12/27 07:49:16;;;;;;;5.69;3.00;;;;;;;7.60;100.00;97891.56;1984898;81;20458;-73
2021/12/27 07:52:19;;;;;;;5.99;2.86;;;;;;;7.63;100.00;97880.31;1984480;81;20427;-73
2021/12/27 07:55:27;;;;;;;3.88;2.79;;;;;;;7.65;100.00;97873.41;1983541;81;20401;-73
2021/12/27 07:58:30;;;;;;;4.35;2.74;;;;;;;7.68;100.00;97871.59;1983584;81;20405;-73
2021/12/27 08:01:35;;;;;;;3.39;2.65;;;;;;;7.72;100.00;97868.13;1982633;79;20518;-74
2021/12/27 08:04:38;;;;;;;3.78;2.70;;;;;;;7.72;100.00;97870.69;1983615;82;20345;-73
2021/12/27 08:07:42;;;;;;;4.75;2.78;;;;;;;7.73;100.00;97871.56;1984812;81;20341;-74
2021/12/27 08:10:45;;;;;;;3.30;2.61;;;;;;;7.77;100.00;97871.47;1984428;81;20455;-74
2021/12/27 08:13:48;;;;;;;3.83;2.69;;;;;;;7.81;100.00;97865.34;1983948;81;20340;-73
2021/12/27 08:16:51;;;;;;;4.57;2.46;;;;;;;7.86;100.00;97863.53;1982837;79;22066;-74
2021/12/27 08:19:53;;;;;;;5.04;2.90;;;;;;;7.91;100.00;97867.78;1984003;81;20442;-73
2021/12/27 08:22:56;;;;;;;3.64;2.89;;;;;;;7.93;100.00;97863.44;1983496;81;20416;-73
2021/12/27 08:25:59;;;;;;;4.05;2.41;;;;;;;7.95;100.00;97853.91;1984450;81;20321;-73
2021/12/27 08:29:09;;;;;;;2.83;2.26;;;;;;;7.97;100.00;97847.00;1981248;81;20337;-73
2021/12/27 08:32:12;;;;;;;3.80;2.58;;;;;;;7.96;100.00;97846.13;1982710;79;22501;-73
2021/12/27 08:35:15;;;;;;;5.86;3.05;;;;;;;7.97;100.00;97847.84;1983358;82;20325;-74
2021/12/27 08:38:18;;;;;;;5.39;2.94;;;;;;;7.99;100.00;97840.91;1982901;81;20452;-74
2021/12/27 08:41:27;;;;;;;2.96;2.61;;;;;;;8.06;100.00;97839.91;1983442;81;20934;-74
2021/12/27 08:44:30;;;;;;;5.44;3.11;;;;;;;8.06;100.00;97834.72;1983921;81;20344;-74
2021/12/27 08:47:32;;;;;;;4.14;3.03;;;;;;;8.06;100.00;97832.13;1981654;79;20430;-73
2021/12/27 08:50:37;;;;;;;4.21;2.45;;;;;;;8.09;100.00;97829.53;1983521;81;20426;-73
2021/12/27 08:53:40;;;;;;;3.71;2.72;;;;;;;8.15;100.00;97829.38;1983626;81;20711;-75
2021/12/27 08:56:42;;;;;;;5.86;2.76;;;;;;;8.25;100.00;97836.94;1982706;82;20313;-73
2021/12/27 08:59:45;;;;;;;5.26;2.86;;;;;;;8.26;100.00;97838.66;1983131;81;20353;-73
2021/12/27 09:02:48;;;;;;;3.51;2.58;;;;;;;8.30;100.00;97827.38;1981526;81;23233;-73
2021/12/27 09:05:50;;;;;;;3.65;2.50;;;;;;;8.31;100.00;97831.66;1983236;82;20366;-73
2021/12/27 09:08:53;;;;;;;4.65;2.36;;;;;;;8.35;100.00;97826.44;1983587;81;21462;-73
2021/12/27 09:11:56;;;;;;;2.56;2.34;;;;;;;8.43;100.00;97819.34;1982900;81;20902;-73
2021/12/27 09:14:58;;;;;;;5.00;2.85;;;;;;;8.46;100.00;97823.63;1983781;82;20309;-73
2021/12/27 09:18:01;;;;;;;2.97;2.78;;;;;;;8.50;100.00;97827.84;1980683;79;24374;-73
2021/12/27 09:21:04;;;;;;;2.56;2.33;;;;;;;8.50;100.00;97827.84;1983240;81;21562;-73
2021/12/27 09:24:07;;;;;;;3.20;2.76;;;;;;;8.52;99.91;97826.06;1982630;82;20342;-73
2021/12/27 09:27:10;;;;;;;4.49;3.63;;;;;;;8.45;98.80;97829.69;1982895;82;21252;-73
2021/12/27 09:30:12;;;;;;;3.01;2.69;;;;;;;8.40;98.84;97816.84;1982107;81;20436;-72
2021/12/27 09:33:15;;;;;;;3.21;2.72;;;;;;;8.40;98.88;97823.75;1978543;79;20400;-73
2021/12/27 09:36:18;;;;;;;3.64;2.85;;;;;;;8.40;98.65;97824.59;1982785;82;20766;-73
2021/12/27 09:39:21;;;;;;;3.17;2.90;;;;;;;8.46;98.79;97814.13;1983237;81;20381;-74
2021/12/27 09:42:26;;;;;;;4.61;2.89;;;;;;;8.52;98.56;97814.88;1982582;82;20364;-73
2021/12/27 09:45:29;;;;;;;3.80;2.54;;;;;;;8.61;98.46;97809.50;1981003;80;20422;-73
2021/12/27 09:48:32;;;;;;;2.56;2.36;;;;;;;8.69;98.32;97799.84;1982497;81;20390;-73
2021/12/27 09:51:37;;;;;;;4.94;2.99;;;;;;;8.76;98.01;97806.56;1982218;82;20396;-73
2021/12/27 09:54:39;;;;;;;5.46;3.42;;;;;;;8.82;97.62;97792.66;1983365;81;20882;-73
2021/12/27 09:57:42;;;;;;;5.01;3.04;;;;;;;8.88;97.22;97792.50;1982984;82;20380;-73
2021/12/27 10:00:45;;;;;;;5.60;3.42;;;;;;;8.94;96.93;97787.16;1982065;79;21234;-73
2021/12/27 10:03:58;;;;;;;4.66;3.39;;;;;;;8.99;96.71;97787.94;1983638;82;20455;-74
2021/12/27 10:07:01;;;;;;;3.83;3.08;;;;;;;9.03;96.69;97784.38;1983593;81;20333;-73
2021/12/27 10:10:05;;;;;;;5.18;3.14;;;;;;;9.07;96.22;97779.09;1983737;81;20388;-73
2021/12/27 10:13:09;;;;;;;5.22;3.04;;;;;;;9.13;96.04;97783.25;1983548;82;20365;-73
2021/12/27 10:16:14;;;;;;;3.40;2.85;;;;;;;9.16;95.67;97783.19;1982859;79;20339;-73
2021/12/27 10:19:19;;;;;;;2.96;2.65;;;;;;;9.22;95.40;97782.19;1983671;81;20356;-74
2021/12/27 10:22:24;;;;;;;4.26;3.09;;;;;;;9.27;95.06;97776.00;1983585;82;20386;-74
2021/12/27 10:25:28;;;;;;;3.21;2.83;;;;;;;9.30;94.74;97777.66;1984011;81;20328;-74
2021/12/27 10:28:30;;;;;;;4.90;2.50;;;;;;;9.34;94.53;97771.53;1983462;82;20185;-73
2021/12/27 10:32:13;;;;;;;2.42;2.28;;;;;;;9.38;94.49;97770.56;1982182;79;20482;-73
2021/12/27 10:35:16;;;;;;;3.13;2.25;;;;;;;9.43;94.37;97773.88;1983233;82;20796;-74
2021/12/27 10:38:28;;;;;;;2.70;2.24;;;;;;;9.50;94.20;97772.81;1984216;82;20387;-74
2021/12/27 10:41:37;;;;;;;1.94;1.84;;;;;;;9.53;93.93;97772.75;1984487;82;20210;-74
2021/12/27 10:44:40;;;;;;;2.14;1.94;;;;;;;9.58;93.70;97763.09;1983959;82;20317;-74
2021/12/27 10:47:44;;;;;;;2.42;2.09;;;;;;;9.61;93.41;97759.59;1981450;80;20207;-74
2021/12/27 10:50:48;;;;;;;2.36;1.88;;;;;;;9.71;93.63;97762.78;1983783;82;20790;-74
2021/12/27 10:53:56;;;;;;;1.98;1.83;;;;;;;9.83;93.46;97759.84;1983947;82;20345;-73
2021/12/27 10:57:02;;;;;;;2.20;2.00;;;;;;;9.92;93.11;97757.00;1983643;82;20864;-74
2021/12/27 11:00:22;;;;;;;2.94;1.46;;;;;;;10.07;92.68;97748.78;1978979;82;20268;-74
2021/12/27 11:03:32;;;;;;;3.24;1.66;;;;;;;10.21;92.28;97756.19;1983582;82;20251;-74
2021/12/27 11:06:40;;;;;;;2.17;1.77;;;;;;;10.35;91.98;97755.78;1983800;82;20222;-74
2021/12/27 11:09:44;;;;;;;2.48;2.00;;;;;;;10.44;91.23;97758.13;1983657;82;20226;-74
2021/12/27 11:12:49;;;;;;;1.51;1.41;;;;;;;10.51;90.98;97752.69;1983218;82;20266;-74
2021/12/27 11:15:52;;;;;;;1.71;1.50;;;;;;;10.51;90.60;97750.09;1984326;80;23495;-74
2021/12/27 11:18:56;;;;;;;2.25;1.55;;;;;;;10.53;89.82;97748.28;1983655;82;20314;-73
2021/12/27 11:21:59;;;;;;;2.46;1.50;;;;;;;10.56;89.70;97744.75;1981172;82;20180;-74
2021/12/27 11:25:08;;;;;;;1.24;1.14;;;;;;;10.55;89.53;97746.50;1979792;82;20188;-74
2021/12/27 11:28:40;;;;;;;1.54;1.13;;;;;;;10.52;88.93;97748.34;1984131;81;20251;-74
2021/12/27 11:31:45;;;;;;;3.35;1.13;;;;;;;10.41;88.05;97742.63;1983853;79;27185;-74
2021/12/27 11:34:56;;;;;;;2.11;1.15;;;;;;;10.37;88.57;97747.06;1985464;81;20217;-74
2021/12/27 11:38:01;;;;;;;2.46;1.34;;;;;;;10.33;89.16;97742.00;1982184;81;20214;-74
2021/12/27 11:41:24;;;;;;;1.29;1.19;;;;;;;10.29;89.08;97742.13;1986428;82;20225;-75
2021/12/27 11:44:39;;;;;;;3.38;1.10;;;;;;;10.19;88.84;97738.03;1986265;81;20224;-74
2021/12/27 11:47:42;;;;;;;2.33;0.94;;;;;;;10.11;88.67;97728.81;1984707;81;24253;-74
2021/12/27 11:51:04;;;;;;;2.22;1.10;;;;;;;10.04;88.90;97725.53;1985692;81;20222;-74
2021/12/27 11:54:27;;;;;;;2.13;1.08;;;;;;;10.00;89.20;97729.09;1985362;81;20169;-74
2021/12/27 11:57:43;;;;;;;1.15;0.80;;;;;;;9.95;89.53;97725.81;1982234;81;20854;-74
2021/12/27 12:00:46;;;;;;;1.94;1.00;;;;;;;9.91;90.09;97725.06;1983813;79;20506;-74
2021/12/27 12:03:50;;;;;;;2.09;0.99;;;;;;;9.89;90.35;97720.81;1984697;81;20189;-74
2021/12/27 12:06:53;;;;;;;2.95;1.33;;;;;;;9.88;90.62;97709.59;1985011;81;21370;-74
2021/12/27 12:09:56;;;;;;;5.32;3.86;;;;;;;9.84;90.69;97710.53;1984934;81;20230;-74
2021/12/27 12:13:22;;;;;;;2.80;2.35;;;;;;;9.83;90.82;97705.41;1984095;81;20216;-74
2021/12/27 12:16:26;;;;;;;3.22;1.94;;;;;;;9.81;90.79;97691.66;1983284;81;22958;-74
2021/12/27 12:19:39;;;;;;;2.03;1.27;;;;;;;9.81;90.58;97699.41;1984930;81;20673;-73
2021/12/27 12:22:44;;;;;;;1.81;1.23;;;;;;;9.81;89.87;97702.84;1985311;81;20188;-75
2021/12/27 12:25:56;;;;;;;2.66;1.24;;;;;;;9.83;89.80;97708.00;1980852;81;20407;-74
2021/12/27 12:29:03;;;;;;;1.48;0.91;;;;;;;9.80;89.76;97695.97;1984943;81;20253;-74
2021/12/27 12:32:08;;;;;;;1.16;1.06;;;;;;;9.80;89.64;97693.38;1980855;81;21517;-74
2021/12/27 12:35:11;;;;;;;1.23;1.10;;;;;;;9.82;89.73;97693.34;1982159;81;20727;-74
2021/12/27 12:38:24;;;;;;;2.20;1.09;;;;;;;9.84;89.85;97684.63;1982131;81;20271;-73
2021/12/27 12:41:27;;;;;;;2.54;1.54;;;;;;;9.85;89.14;97683.72;1981907;81;20184;-75
2021/12/27 12:44:29;;;;;;;1.11;1.01;;;;;;;9.88;88.89;97681.06;1982909;81;20358;-74
2021/12/27 12:47:41;;;;;;;2.51;1.33;;;;;;;9.88;87.98;97688.84;1981513;79;21527;-73
2021/12/27 12:50:43;;;;;;;1.60;0.79;;;;;;;9.81;86.86;97692.50;1981703;81;20224;-74
2021/12/27 12:53:46;;;;;;;1.23;0.89;;;;;;;9.80;86.95;97689.94;1982257;82;20387;-74
2021/12/27 12:56:55;;;;;;;2.25;0.77;;;;;;;9.80;87.09;97688.19;1981473;82;20245;-73
2021/12/27 12:59:59;;;;;;;2.15;0.80;;;;;;;9.79;86.66;97683.06;1982814;81;20341;-74
2021/12/27 13:03:14;;;;;;;1.49;0.90;;;;;;;9.78;86.26;97684.81;1981444;79;20873;-74
2021/12/27 13:06:17;;;;;;;1.60;0.76;;;;;;;9.75;85.65;97682.31;1982660;81;20844;-74
2021/12/27 13:09:19;;;;;;;2.46;0.96;;;;;;;9.71;85.58;97692.81;1981847;81;20232;-73
2021/12/27 13:12:24;;;;;;;1.54;0.81;;;;;;;9.66;85.98;97678.22;1982554;81;20341;-73
2021/12/27 13:15:34;;;;;;;0.89;0.85;;;;;;;9.61;85.90;97677.50;1980520;79;21628;-74
2021/12/27 13:18:37;;;;;;;1.14;0.90;;;;;;;9.56;85.39;97673.34;1982102;81;20364;-74
2021/12/27 13:21:41;;;;;;;1.08;0.90;;;;;;;9.49;85.15;97677.00;1978142;81;20499;-74
2021/12/27 13:24:53;;;;;;;0.70;0.70;;;;;;;9.44;85.12;97668.50;1982089;81;20425;-73
2021/12/27 13:28:15;;;;;;;1.05;0.77;;;;;;;9.42;84.56;97665.13;1981883;81;20352;-73
2021/12/27 13:31:24;;;;;;;0.73;0.69;;;;;;;9.39;85.09;97673.81;1979853;79;20650;-73
2021/12/27 13:34:27;;;;;;;1.26;0.62;;;;;;;9.34;84.80;97670.53;1981823;82;20332;-73
2021/12/27 13:37:34;;;;;;;0.80;0.52;;;;;;;9.31;85.03;97674.00;1981715;82;20259;-74
2021/12/27 13:40:43;;;;;;;1.49;0.70;;;;;;;9.31;85.42;97674.00;1982376;81;20415;-73
2021/12/27 13:43:55;;;;;;;0.89;0.80;;;;;;;9.26;84.83;97675.03;1981811;81;20320;-73
2021/12/27 13:47:04;;;;;;;0.70;0.68;;;;;;;9.24;84.96;97671.63;1980954;81;20366;-74
2021/12/27 13:50:07;;;;;;;;;;;;;;;9.21;85.40;97661.38;1981310;82;20332;-73
2021/12/27 13:53:16;;;;;;;1.10;0.76;;;;;;;9.18;85.38;97666.63;1982515;82;20652;-73
2021/12/27 13:56:18;;;;;;;0.95;0.76;;;;;;;9.20;85.65;97663.13;1982139;82;20396;-73
2021/12/27 13:59:22;;;;;;;2.22;0.71;;;;;;;9.19;84.92;97658.81;1981724;82;20349;-73
2021/12/27 14:02:37;;;;;;;1.17;0.76;;;;;;;9.18;84.72;97661.47;1981613;80;21755;-73
2021/12/27 14:05:40;;;;;;;1.00;0.73;;;;;;;9.16;84.32;97663.25;1982172;81;20910;-73
2021/12/27 14:09:00;;;;;;;1.00;0.90;;;;;;;9.17;84.71;97657.16;1982019;81;20338;-73
2021/12/27 14:12:05;;;;;;;0.98;0.84;;;;;;;9.16;83.78;97652.88;1981568;81;20931;-74
2021/12/27 14:15:08;;;;;;;2.14;0.80;;;;;;;9.20;84.01;97644.13;1979918;82;20478;-74
2021/12/27 14:18:14;;;;;;;0.86;0.76;;;;;;;9.22;84.69;97647.53;1981406;79;22743;-73
2021/12/27 14:21:17;;;;;;;1.04;0.63;;;;;;;9.24;85.17;97645.75;1977847;82;20378;-73
2021/12/27 14:24:56;;;;;;;0.80;0.80;;;;;;;9.23;84.72;97637.13;1981230;82;20470;-73
2021/12/27 14:27:59;;;;;;;1.08;0.70;;;;;;;9.26;84.49;97637.03;1976334;81;20341;-73
2021/12/27 14:31:02;;;;;;;0.60;0.60;;;;;;;9.23;84.50;97639.72;1979383;79;22957;-73
2021/12/27 14:34:04;;;;;;;0.74;0.70;;;;;;;9.23;84.80;97634.53;1976884;82;20340;-74
2021/12/27 14:37:09;;;;;;;1.15;0.77;;;;;;;9.20;84.42;97652.75;1980657;82;20475;-73
2021/12/27 14:40:12;;;;;;;0.76;0.70;;;;;;;9.21;84.55;97654.44;1980307;82;21425;-74